Time;durP1;ratioP1;P1;durP2;ratioP2;P2;SDS_P1;SDS_P2;PMS_P1;PMS_P2;Temp;Humidity;BMP_temperature;BMP_pressure;BME280_temperature;BME280_humidity;BME280_pressure;Samples;Min_cycle;Max_cycle;Signal;HPM_P1;HPM_P2
2022/06/06 00:00:47;;;;;;;1.95;0.90;;;18.70;94.60;;;;;;5103817;28;20206;-44
2022/06/06 00:03:15;;;;;;;0.90;0.90;;;18.60;94.60;;;;;;5099153;28;20299;-44
2022/06/06 00:05:43;;;;;;;0.85;0.85;;;18.60;94.60;;;;;;5089361;28;20699;-44
2022/06/06 00:08:11;;;;;;;1.08;1.08;;;18.60;94.70;;;;;;5090834;28;20283;-45
2022/06/06 00:10:40;;;;;;;1.17;1.08;;;18.50;94.70;;;;;;5095618;28;20196;-46
2022/06/06 00:13:07;;;;;;;1.08;1.08;;;18.50;94.80;;;;;;5103468;28;20253;-50
2022/06/06 00:15:34;;;;;;;1.23;1.23;;;18.50;94.90;;;;;;5107785;28;20204;-50
2022/06/06 00:18:03;;;;;;;1.40;1.30;;;18.50;94.90;;;;;;5095304;28;20197;-51
2022/06/06 00:20:31;;;;;;;1.20;1.20;;;18.50;95.00;;;;;;5089008;28;20288;-52
2022/06/06 00:22:59;;;;;;;1.10;1.10;;;18.50;95.10;;;;;;5089193;28;20208;-48
2022/06/06 00:25:26;;;;;;;1.10;1.10;;;18.50;95.10;;;;;;5087935;28;20571;-51
2022/06/06 00:27:53;;;;;;;1.05;1.05;;;18.40;95.10;;;;;;5088798;28;20685;-49
2022/06/06 00:30:21;;;;;;;0.95;0.95;;;18.40;95.20;;;;;;5089874;28;20383;-47
2022/06/06 00:35:34;;;;;;;1.17;1.17;;;18.30;95.30;;;;;;5089071;28;20224;-48
2022/06/06 00:38:01;;;;;;;2.05;1.10;;;18.30;95.30;;;;;;5089000;28;20189;-44
2022/06/06 00:40:30;;;;;;;1.40;1.20;;;18.30;95.40;;;;;;5097708;28;20231;-49
2022/06/06 00:42:57;;;;;;;0.98;0.98;;;18.30;95.50;;;;;;5096514;28;20279;-51
2022/06/06 00:45:30;;;;;;;1.10;1.00;;;18.30;95.50;;;;;;5101053;28;20208;-48
2022/06/06 00:48:06;;;;;;;0.90;0.90;;;18.30;95.60;;;;;;5104186;28;20223;-49
2022/06/06 00:50:40;;;;;;;0.93;0.90;;;18.30;95.60;;;;;;5103847;28;20281;-46
2022/06/06 00:53:09;;;;;;;0.95;0.95;;;18.20;95.60;;;;;;5108835;28;20209;-48
2022/06/06 00:55:42;;;;;;;1.35;1.15;;;18.20;95.70;;;;;;5107023;28;20210;-46
2022/06/06 00:58:14;;;;;;;1.00;1.00;;;18.20;95.70;;;;;;5108637;28;20225;-49
2022/06/06 01:00:42;;;;;;;1.00;1.00;;;18.20;95.80;;;;;;5102785;28;20652;-49
2022/06/06 01:03:13;;;;;;;1.42;1.33;;;18.20;95.90;;;;;;5100811;28;20245;-48
2022/06/06 01:05:44;;;;;;;1.05;1.05;;;18.10;96.00;;;;;;5106463;28;20292;-48
2022/06/06 01:08:12;;;;;;;1.02;1.02;;;18.10;96.00;;;;;;5101546;28;20207;-51
2022/06/06 01:10:39;;;;;;;1.27;1.20;;;18.10;96.10;;;;;;5093544;28;20497;-49
2022/06/06 01:13:09;;;;;;;2.15;0.82;;;18.10;96.10;;;;;;5108635;28;20212;-51
2022/06/06 01:15:48;;;;;;;0.98;0.98;;;18.10;96.20;;;;;;5108285;28;20190;-47
2022/06/06 01:18:26;;;;;;;0.98;0.98;;;18.00;96.20;;;;;;5109084;28;20331;-50
2022/06/06 01:21:22;;;;;;;1.17;1.13;;;18.00;96.20;;;;;;5107213;28;20755;-47
2022/06/06 01:24:21;;;;;;;1.13;1.10;;;18.00;96.30;;;;;;5059387;28;20313;-46
2022/06/06 01:27:02;;;;;;;1.45;1.35;;;18.00;96.30;;;;;;5090129;28;20218;-43
2022/06/06 01:29:34;;;;;;;0.95;0.95;;;18.00;96.40;;;;;;5089121;28;20223;-47
2022/06/06 01:32:04;;;;;;;1.23;1.13;;;17.90;96.40;;;;;;5089472;28;20638;-49
2022/06/06 01:34:33;;;;;;;1.20;1.20;;;17.90;96.50;;;;;;5089178;28;20262;-45
2022/06/06 01:37:01;;;;;;;1.65;1.10;;;17.90;96.60;;;;;;5098253;28;20219;-49
2022/06/06 01:39:31;;;;;;;1.88;1.40;;;17.90;96.60;;;;;;5087755;28;20209;-47
2022/06/06 01:42:09;;;;;;;1.55;1.27;;;17.90;96.70;;;;;;5095137;28;20207;-49
2022/06/06 01:44:41;;;;;;;1.50;1.35;;;17.90;96.80;;;;;;5095468;28;20230;-45
2022/06/06 01:47:12;;;;;;;1.30;1.20;;;17.90;96.80;;;;;;5105113;28;20218;-48
2022/06/06 01:49:40;;;;;;;1.48;1.38;;;17.90;96.90;;;;;;5101566;28;20194;-51
2022/06/06 01:52:10;;;;;;;1.67;1.30;;;17.80;96.90;;;;;;5096582;28;20227;-43
2022/06/06 01:54:38;;;;;;;1.50;1.40;;;17.80;97.00;;;;;;5088117;28;20199;-43
2022/06/06 01:57:08;;;;;;;3.05;1.52;;;17.80;97.00;;;;;;5102088;28;20548;-44
2022/06/06 01:59:35;;;;;;;4.38;1.55;;;17.80;97.10;;;;;;5090015;28;20212;-42
2022/06/06 02:02:04;;;;;;;1.88;1.33;;;17.80;97.20;;;;;;5104682;28;20281;-45
2022/06/06 02:04:31;;;;;;;1.70;1.58;;;17.80;97.20;;;;;;5108293;28;20356;-43
2022/06/06 02:06:58;;;;;;;2.30;1.85;;;17.80;97.20;;;;;;5099251;28;20544;-43
2022/06/06 02:09:26;;;;;;;1.60;1.38;;;17.80;97.20;;;;;;5090857;28;20234;-44
2022/06/06 02:11:53;;;;;;;1.27;1.20;;;17.80;97.30;;;;;;5092630;28;20202;-44
2022/06/06 02:14:21;;;;;;;1.60;1.50;;;17.80;97.40;;;;;;5090332;28;20231;-44
2022/06/06 02:16:48;;;;;;;1.20;1.20;;;17.80;97.80;;;;;;5104375;28;20257;-44
2022/06/06 02:19:16;;;;;;;1.10;1.10;;;17.80;97.60;;;;;;5093281;28;20199;-43
2022/06/06 02:21:43;;;;;;;1.45;1.35;;;17.80;97.50;;;;;;5100782;28;20295;-44
2022/06/06 02:24:10;;;;;;;1.20;1.20;;;17.80;97.50;;;;;;5109802;27;20205;-43
2022/06/06 02:26:37;;;;;;;1.40;1.30;;;17.80;97.50;;;;;;5100226;28;20305;-45
2022/06/06 02:29:05;;;;;;;1.48;1.38;;;17.80;97.50;;;;;;5111348;28;20725;-43
2022/06/06 02:31:37;;;;;;;1.48;1.38;;;17.70;97.50;;;;;;5112447;28;20631;-43
2022/06/06 02:34:04;;;;;;;1.52;1.42;;;17.70;97.60;;;;;;5112006;28;20230;-48
2022/06/06 02:36:33;;;;;;;1.10;1.10;;;17.70;97.60;;;;;;5108208;28;20192;-43
2022/06/06 02:39:00;;;;;;;1.23;1.17;;;17.70;97.60;;;;;;5104046;28;20229;-43
2022/06/06 02:41:28;;;;;;;1.05;1.05;;;17.70;97.60;;;;;;5096363;28;20282;-43
2022/06/06 02:43:56;;;;;;;1.27;1.20;;;17.80;97.70;;;;;;5105687;28;20230;-44
2022/06/06 02:46:23;;;;;;;1.20;1.20;;;17.70;98.00;;;;;;5098577;28;20544;-42
2022/06/06 02:48:50;;;;;;;1.02;1.02;;;17.70;97.70;;;;;;5093740;28;20211;-42
2022/06/06 02:51:17;;;;;;;1.20;1.20;;;17.70;97.70;;;;;;5110778;28;20210;-46
2022/06/06 02:53:45;;;;;;;1.05;1.05;;;17.70;97.80;;;;;;5108595;28;20223;-42
2022/06/06 02:56:12;;;;;;;1.20;1.20;;;17.70;97.80;;;;;;5103908;28;20192;-42
2022/06/06 02:58:39;;;;;;;0.90;0.90;;;17.70;97.80;;;;;;5102294;28;20671;-44
2022/06/06 03:01:09;;;;;;;0.85;0.82;;;17.70;97.90;;;;;;5108733;28;20207;-45
2022/06/06 03:03:37;;;;;;;1.05;1.05;;;17.70;97.90;;;;;;5109703;28;20235;-44
2022/06/06 03:06:31;;;;;;;0.90;0.90;;;17.70;97.90;;;;;;5111176;28;20223;-47
2022/06/06 03:09:22;;;;;;;1.05;1.05;;;17.70;98.00;;;;;;5096685;28;20685;-45
2022/06/06 03:12:15;;;;;;;1.10;1.08;;;17.70;98.00;;;;;;5109097;28;20290;-43
2022/06/06 03:15:01;;;;;;;0.98;0.98;;;17.80;98.30;;;;;;5109238;28;20217;-48
2022/06/06 03:20:54;;;;;;;1.07;0.97;;;17.80;98.00;;;;;;5111210;28;20201;-51
2022/06/06 03:23:39;;;;;;;1.95;1.00;;;17.80;98.00;;;;;;5111314;28;20719;-53
2022/06/06 03:26:14;;;;;;;1.10;1.10;;;17.80;98.10;;;;;;5108610;28;20647;-52
2022/06/06 03:28:59;;;;;;;0.90;0.90;;;17.80;98.10;;;;;;5110180;28;20193;-47
2022/06/06 03:31:34;;;;;;;1.05;1.00;;;17.80;98.10;;;;;;5096493;28;20202;-49
2022/06/06 03:34:09;;;;;;;1.10;1.10;;;17.80;98.10;;;;;;5097165;28;20279;-51
2022/06/06 03:36:44;;;;;;;0.82;0.82;;;17.80;98.10;;;;;;5110837;28;20193;-51
2022/06/06 03:39:25;;;;;;;0.90;0.90;;;17.80;98.10;;;;;;5104729;28;20231;-49
2022/06/06 03:42:02;;;;;;;1.20;1.10;;;17.90;98.10;;;;;;5110254;28;20281;-49
2022/06/06 03:44:44;;;;;;;1.03;1.03;;;17.90;98.10;;;;;;5102158;28;20193;-49
2022/06/06 03:47:24;;;;;;;0.80;0.80;;;17.90;98.10;;;;;;5101881;28;20254;-50
2022/06/06 03:50:02;;;;;;;0.60;0.60;;;17.90;98.10;;;;;;5102362;28;20199;-51
2022/06/06 03:52:42;;;;;;;0.90;0.90;;;17.90;98.40;;;;;;5095430;28;20327;-50
2022/06/06 03:55:15;;;;;;;1.10;0.98;;;18.00;98.00;;;;;;5092380;28;20276;-48
2022/06/06 03:57:45;;;;;;;0.90;0.90;;;18.00;98.00;;;;;;5109097;28;20277;-49
2022/06/06 04:00:14;;;;;;;1.35;0.90;;;18.00;97.90;;;;;;5105332;28;20319;-50
2022/06/06 04:02:46;;;;;;;1.25;1.20;;;18.00;97.90;;;;;;5107632;28;20194;-49
2022/06/06 04:05:18;;;;;;;0.93;0.93;;;18.00;97.90;;;;;;5104565;28;20250;-50
2022/06/06 04:07:45;;;;;;;1.00;1.00;;;18.00;97.80;;;;;;5089585;28;20208;-50
2022/06/06 04:10:15;;;;;;;1.13;1.10;;;18.00;97.70;;;;;;5097943;28;20673;-46
2022/06/06 04:13:06;;;;;;;0.93;0.93;;;18.10;97.70;;;;;;5104050;28;20231;-45
2022/06/06 04:15:42;;;;;;;1.20;1.20;;;18.00;97.60;;;;;;5099523;28;20219;-50
2022/06/06 04:18:21;;;;;;;1.35;1.25;;;18.10;97.60;;;;;;5097159;28;20232;-50
2022/06/06 04:20:56;;;;;;;1.85;1.40;;;18.00;97.60;;;;;;5094956;28;20685;-46
2022/06/06 04:23:37;;;;;;;1.65;1.55;;;18.00;97.60;;;;;;5090583;28;20218;-50
2022/06/06 04:26:12;;;;;;;1.58;1.48;;;17.90;97.60;;;;;;5092400;28;20203;-48
2022/06/06 04:28:52;;;;;;;1.52;1.42;;;17.90;97.50;;;;;;5098044;28;20195;-50
2022/06/06 04:31:26;;;;;;;1.50;1.40;;;17.90;97.50;;;;;;5092847;28;20206;-50
2022/06/06 04:34:02;;;;;;;1.15;1.15;;;17.90;97.50;;;;;;5101997;28;20279;-49
2022/06/06 04:36:34;;;;;;;1.58;1.48;;;18.00;97.50;;;;;;5099213;28;20934;-48
2022/06/06 04:39:08;;;;;;;1.33;1.30;;;18.10;97.50;;;;;;5097718;28;20202;-50
2022/06/06 04:41:49;;;;;;;1.67;1.58;;;18.10;97.50;;;;;;5095941;27;20196;-46
2022/06/06 04:44:25;;;;;;;1.77;1.67;;;18.10;97.80;;;;;;5094147;28;20266;-45
2022/06/06 04:46:56;;;;;;;1.77;1.67;;;18.10;97.40;;;;;;5090649;28;20289;-44
2022/06/06 04:49:26;;;;;;;1.52;1.42;;;18.10;97.40;;;;;;5095259;28;20211;-45
2022/06/06 04:51:54;;;;;;;1.83;1.73;;;18.20;97.50;;;;;;5090696;28;20328;-49
2022/06/06 04:54:25;;;;;;;1.52;1.42;;;18.20;97.50;;;;;;5107581;28;20556;-47
2022/06/06 04:56:54;;;;;;;1.65;1.55;;;18.20;97.50;;;;;;5095046;28;20288;-45
2022/06/06 04:59:24;;;;;;;1.40;1.30;;;18.20;97.50;;;;;;5099530;28;20207;-45
2022/06/06 05:01:51;;;;;;;2.20;1.70;;;18.30;97.50;;;;;;5107647;28;20278;-44
2022/06/06 05:04:18;;;;;;;1.40;1.30;;;18.30;97.50;;;;;;5106343;28;20275;-46
2022/06/06 05:07:13;;;;;;;2.53;1.67;;;18.30;97.40;;;;;;5105421;28;20224;-43
2022/06/06 05:09:56;;;;;;;1.90;1.80;;;18.30;97.40;;;;;;5105788;28;20278;-47
2022/06/06 05:12:39;;;;;;;1.90;1.80;;;18.30;97.40;;;;;;5096146;28;20205;-46
2022/06/06 05:15:23;;;;;;;1.83;1.63;;;18.30;97.40;;;;;;5104506;28;20216;-46
2022/06/06 05:18:15;;;;;;;1.80;1.70;;;18.30;97.50;;;;;;5095330;28;20195;-44
2022/06/06 05:20:56;;;;;;;1.80;1.60;;;18.30;97.50;;;;;;5078773;28;20235;-46
2022/06/06 05:23:55;;;;;;;1.42;1.42;;;18.30;97.40;;;;;;5088708;28;20199;-45
2022/06/06 05:26:45;;;;;;;1.60;1.50;;;18.30;97.40;;;;;;5085824;28;20314;-47
2022/06/06 05:29:53;;;;;;;1.30;1.30;;;18.30;97.30;;;;;;5091548;28;20200;-45
2022/06/06 05:32:54;;;;;;;1.35;1.35;;;18.40;97.30;;;;;;5089076;28;20225;-45
2022/06/06 05:35:34;;;;;;;2.00;1.70;;;18.50;97.30;;;;;;5078187;28;20332;-51
2022/06/06 05:38:16;;;;;;;1.50;1.40;;;18.50;97.20;;;;;;5089110;28;20188;-48
2022/06/06 05:40:51;;;;;;;1.67;1.58;;;18.50;97.20;;;;;;5086754;28;20688;-49
2022/06/06 05:43:29;;;;;;;1.50;1.40;;;18.60;97.20;;;;;;5099281;28;20249;-50
2022/06/06 05:46:12;;;;;;;1.58;1.48;;;18.60;97.20;;;;;;5094478;28;20283;-44
2022/06/06 05:48:52;;;;;;;1.55;1.48;;;18.70;97.10;;;;;;5109090;28;20202;-44
2022/06/06 05:51:31;;;;;;;1.75;1.65;;;18.70;97.00;;;;;;5109074;28;20270;-46
2022/06/06 05:54:10;;;;;;;1.58;1.48;;;18.70;97.20;;;;;;5094700;28;20294;-44
2022/06/06 05:56:56;;;;;;;1.70;1.60;;;18.80;96.80;;;;;;5092215;28;20299;-48
2022/06/06 05:59:49;;;;;;;1.70;1.60;;;18.80;96.60;;;;;;5096037;28;20524;-44
2022/06/06 06:02:42;;;;;;;2.13;1.95;;;18.90;96.50;;;;;;5099489;28;20748;-47
2022/06/06 06:05:17;;;;;;;2.25;2.15;;;18.90;96.30;;;;;;5093250;28;20184;-46
2022/06/06 06:07:58;;;;;;;1.45;1.42;;;18.80;96.10;;;;;;5094720;28;20200;-44
2022/06/06 06:10:36;;;;;;;2.83;2.20;;;18.90;96.10;;;;;;5102589;28;20199;-46
2022/06/06 06:13:23;;;;;;;2.05;1.75;;;18.90;96.00;;;;;;5095023;28;20383;-45
2022/06/06 06:15:53;;;;;;;2.17;2.03;;;18.90;96.10;;;;;;5091875;28;20314;-45
2022/06/06 06:18:25;;;;;;;2.40;2.20;;;18.90;96.10;;;;;;5093044;28;20212;-44
2022/06/06 06:20:59;;;;;;;1.88;1.77;;;19.00;96.20;;;;;;5104808;28;20256;-45
2022/06/06 06:23:32;;;;;;;2.22;1.90;;;19.00;96.10;;;;;;5098617;28;20449;-42
2022/06/06 06:26:02;;;;;;;2.03;1.83;;;19.10;96.50;;;;;;5089566;28;20188;-43
2022/06/06 06:28:32;;;;;;;2.10;2.00;;;19.20;96.10;;;;;;5091668;28;20287;-44
2022/06/06 06:31:13;;;;;;;3.05;1.88;;;19.20;96.00;;;;;;5111347;28;20639;-43
2022/06/06 06:33:50;;;;;;;2.22;2.13;;;19.20;95.90;;;;;;5108707;28;20195;-43
2022/06/06 06:36:34;;;;;;;2.42;2.33;;;19.20;95.80;;;;;;5110611;28;20782;-47
2022/06/06 06:39:14;;;;;;;2.60;2.17;;;19.30;95.70;;;;;;5109885;28;20687;-43
2022/06/06 06:41:55;;;;;;;2.70;2.50;;;19.30;95.60;;;;;;5098754;28;20537;-46
2022/06/06 06:44:29;;;;;;;2.60;2.50;;;19.30;95.60;;;;;;5101504;28;20680;-45
2022/06/06 06:46:58;;;;;;;2.55;2.45;;;19.30;95.50;;;;;;5092761;28;20434;-46
2022/06/06 06:49:35;;;;;;;2.65;2.45;;;19.30;95.50;;;;;;5095844;28;20225;-42
2022/06/06 06:52:14;;;;;;;3.25;2.35;;;19.30;95.60;;;;;;5111058;28;20279;-47
2022/06/06 06:54:54;;;;;;;2.42;2.22;;;19.40;95.60;;;;;;5097852;28;20381;-45
2022/06/06 06:57:57;;;;;;;2.50;2.30;;;19.40;95.70;;;;;;5108995;28;20237;-44
2022/06/06 07:00:25;;;;;;;2.80;2.60;;;19.40;95.80;;;;;;5061542;28;20701;-52
2022/06/06 07:08:56;;;;;;;2.95;2.58;;;19.50;95.70;;;;;;5099258;28;20248;-48
2022/06/06 07:11:44;;;;;;;2.72;2.30;;;19.50;95.60;;;;;;5089729;28;20220;-51
2022/06/06 07:14:24;;;;;;;3.22;2.80;;;19.50;95.70;;;;;;5096064;28;20734;-47
2022/06/06 07:16:57;;;;;;;3.05;2.70;;;19.60;95.70;;;;;;5110358;28;20242;-49
2022/06/06 07:19:32;;;;;;;2.90;2.70;;;19.60;95.70;;;;;;5109998;28;20278;-50
2022/06/06 07:22:02;;;;;;;3.30;3.00;;;19.70;95.80;;;;;;5090026;28;20557;-50
2022/06/06 07:24:31;;;;;;;2.72;2.53;;;19.70;95.80;;;;;;5088828;28;20729;-49
2022/06/06 07:26:59;;;;;;;2.80;2.60;;;19.80;95.90;;;;;;5098338;28;20213;-50
2022/06/06 07:29:26;;;;;;;2.85;2.65;;;19.90;96.10;;;;;;5089458;28;20200;-50
2022/06/06 07:32:11;;;;;;;2.33;2.22;;;19.90;96.00;;;;;;5090164;28;20296;-50
2022/06/06 07:34:52;;;;;;;2.42;2.33;;;20.10;96.10;;;;;;5089214;28;20232;-48
2022/06/06 07:37:36;;;;;;;2.40;2.30;;;20.10;96.00;;;;;;5089977;28;20188;-52
2022/06/06 07:40:13;;;;;;;2.60;2.50;;;20.20;96.10;;;;;;5088565;28;20195;-43
2022/06/06 07:42:56;;;;;;;2.25;2.15;;;20.30;96.50;;;;;;5099316;28;20184;-48
2022/06/06 07:45:28;;;;;;;2.00;1.90;;;20.40;96.10;;;;;;5094515;28;20237;-50
2022/06/06 07:48:17;;;;;;;2.45;2.25;;;20.50;96.10;;;;;;5103149;28;20287;-42
2022/06/06 07:50:54;;;;;;;2.45;2.35;;;20.50;96.00;;;;;;5093708;28;20292;-43
2022/06/06 07:53:31;;;;;;;2.60;2.47;;;20.60;96.00;;;;;;5106380;28;20645;-50
2022/06/06 07:56:07;;;;;;;3.00;2.80;;;20.70;96.00;;;;;;5102372;28;20196;-46
2022/06/06 07:58:42;;;;;;;2.45;2.30;;;20.70;95.80;;;;;;5105295;28;20635;-47
2022/06/06 08:01:14;;;;;;;2.30;2.20;;;20.80;95.80;;;;;;5106147;28;20196;-47
2022/06/06 08:03:50;;;;;;;2.67;2.58;;;20.80;95.90;;;;;;5108424;28;20253;-45
2022/06/06 08:06:37;;;;;;;2.25;2.15;;;20.90;95.90;;;;;;5107851;28;20286;-49
2022/06/06 08:09:39;;;;;;;2.70;2.50;;;21.00;95.90;;;;;;5097725;28;20572;-45
2022/06/06 08:12:20;;;;;;;3.30;3.10;;;21.10;95.80;;;;;;5091625;28;20203;-49
2022/06/06 08:15:03;;;;;;;3.72;3.42;;;21.20;95.70;;;;;;5101198;28;20682;-47
2022/06/06 08:17:42;;;;;;;2.80;2.60;;;21.30;95.60;;;;;;5106445;28;20627;-48
2022/06/06 08:20:20;;;;;;;2.78;2.58;;;21.40;95.50;;;;;;5102174;28;20190;-43
2022/06/06 08:22:48;;;;;;;6.65;2.33;;;21.50;95.50;;;;;;5106298;28;20693;-45
2022/06/06 08:25:16;;;;;;;3.03;2.83;;;21.60;95.50;;;;;;5104161;28;20202;-44
2022/06/06 08:27:49;;;;;;;2.63;2.47;;;21.70;95.50;;;;;;5098927;28;20240;-48
2022/06/06 08:30:17;;;;;;;2.35;2.17;;;21.80;95.70;;;;;;5094775;28;20901;-47
2022/06/06 08:32:44;;;;;;;3.10;2.90;;;21.80;95.30;;;;;;5100134;28;20193;-50
2022/06/06 08:35:11;;;;;;;3.20;3.00;;;21.90;95.30;;;;;;5105133;28;20544;-44
2022/06/06 08:38:04;;;;;;;3.30;3.10;;;22.00;95.20;;;;;;5095169;28;20282;-45
2022/06/06 08:41:05;;;;;;;3.10;2.90;;;22.10;95.20;;;;;;5094955;28;20304;-44
2022/06/06 08:44:01;;;;;;;2.45;2.33;;;22.20;95.00;;;;;;5091974;28;20663;-46
2022/06/06 08:46:45;;;;;;;2.90;2.70;;;22.30;94.90;;;;;;5095941;28;20639;-46
2022/06/06 08:52:18;;;;;;;2.97;2.70;;;22.40;94.70;;;;;;5092627;28;20345;-45
2022/06/06 08:55:29;;;;;;;2.90;2.70;;;22.50;94.60;;;;;;5104470;28;20275;-44
2022/06/06 08:58:19;;;;;;;2.97;2.78;;;22.70;94.70;;;;;;5055253;28;20226;-44
2022/06/06 09:00:56;;;;;;;2.90;2.70;;;22.80;94.40;;;;;;5101998;28;20198;-46
2022/06/06 09:03:57;;;;;;;2.65;2.50;;;22.90;94.30;;;;;;5109214;28;20724;-43
2022/06/06 09:06:57;;;;;;;2.92;2.72;;;23.00;94.10;;;;;;5108758;28;20190;-43
2022/06/06 09:10:12;;;;;;;2.95;2.85;;;23.10;93.90;;;;;;5092848;28;20208;-45
2022/06/06 09:13:16;;;;;;;3.88;3.58;;;23.30;93.70;;;;;;5074114;28;20220;-46
2022/06/06 09:16:21;;;;;;;3.55;3.35;;;23.40;93.30;;;;;;5087882;28;20199;-44
2022/06/06 09:19:31;;;;;;;3.10;2.90;;;23.40;92.60;;;;;;5097948;28;20191;-44
2022/06/06 09:22:30;;;;;;;3.80;3.40;;;23.40;92.40;;;;;;5040857;28;20209;-47
2022/06/06 09:25:29;;;;;;;3.42;3.08;;;23.50;92.20;;;;;;5099935;28;20294;-51
2022/06/06 09:28:35;;;;;;;3.17;2.97;;;23.60;92.10;;;;;;5088530;28;20284;-47
2022/06/06 09:31:49;;;;;;;3.40;3.20;;;23.60;91.70;;;;;;5104935;28;20223;-51
2022/06/06 09:34:58;;;;;;;2.97;2.78;;;23.70;91.40;;;;;;5101968;28;20203;-47
2022/06/06 09:37:37;;;;;;;3.05;2.90;;;23.70;91.10;;;;;;5095896;28;20290;-49
2022/06/06 09:40:24;;;;;;;3.38;3.10;;;23.80;90.90;;;;;;5109862;28;20638;-48
2022/06/06 09:43:09;;;;;;;3.50;3.22;;;23.80;90.80;;;;;;5111642;27;20310;-48
2022/06/06 09:46:05;;;;;;;3.10;2.90;;;23.90;90.70;;;;;;5092663;28;20282;-52
2022/06/06 09:49:20;;;;;;;4.45;3.75;;;23.90;90.50;;;;;;5105345;28;20303;-49
2022/06/06 09:52:13;;;;;;;3.20;3.00;;;24.00;90.10;;;;;;5051133;28;20662;-46
2022/06/06 10:01:57;;;;;;;3.20;2.90;;;24.10;88.60;;;;;;5111679;28;20222;-48
2022/06/06 10:05:00;;;;;;;3.30;3.05;;;24.20;86.90;;;;;;5085786;28;20219;-51
2022/06/06 10:08:09;;;;;;;3.33;3.13;;;24.30;86.90;;;;;;5110293;28;20201;-50
2022/06/06 10:11:10;;;;;;;3.20;2.97;;;24.30;85.00;;;;;;5101350;28;20185;-49
2022/06/06 10:13:54;;;;;;;3.10;2.90;;;24.40;84.50;;;;;;5057427;28;20240;-46
2022/06/06 10:16:43;;;;;;;3.13;2.83;;;24.40;83.70;;;;;;5090964;28;20234;-50
2022/06/06 10:19:31;;;;;;;3.10;2.90;;;24.40;82.80;;;;;;5102377;28;20544;-51
2022/06/06 10:22:13;;;;;;;3.20;3.00;;;24.50;82.30;;;;;;5091040;28;20541;-50
2022/06/06 10:24:59;;;;;;;3.15;2.92;;;24.50;81.50;;;;;;5090226;28;20315;-49
2022/06/06 10:27:44;;;;;;;2.80;2.60;;;24.50;81.30;;;;;;5096718;28;20554;-51
2022/06/06 10:30:21;;;;;;;2.60;2.50;;;24.50;81.60;;;;;;5089879;28;20269;-51
2022/06/06 10:33:33;;;;;;;2.50;2.30;;;24.50;81.80;;;;;;5101949;28;20202;-50
2022/06/06 10:36:13;;;;;;;3.08;2.45;;;24.50;82.00;;;;;;5110414;28;20243;-50
2022/06/06 10:39:13;;;;;;;2.17;2.08;;;24.60;81.60;;;;;;5110659;28;20690;-52
2022/06/06 10:42:25;;;;;;;2.50;2.30;;;24.60;81.20;;;;;;5094079;28;20257;-49
2022/06/06 10:45:31;;;;;;;2.45;2.35;;;24.70;78.50;;;;;;5025756;28;20237;-53
2022/06/06 10:48:54;;;;;;;3.10;2.60;;;24.70;76.30;;;;;;5096492;28;20206;-51
2022/06/06 10:52:11;;;;;;;2.20;2.00;;;24.80;73.20;;;;;;5089480;28;20690;-50
2022/06/06 10:55:17;;;;;;;2.22;2.08;;;24.90;70.30;;;;;;5099256;28;20280;-50
2022/06/06 10:58:17;;;;;;;2.00;1.90;;;24.90;69.40;;;;;;5096403;28;20257;-47
2022/06/06 11:01:20;;;;;;;2.10;2.00;;;24.90;69.70;;;;;;5062295;28;20307;-47
2022/06/06 11:04:23;;;;;;;2.17;2.08;;;25.00;70.00;;;;;;5110877;28;20271;-47
2022/06/06 11:07:18;;;;;;;3.10;2.50;;;25.10;70.30;;;;;;5110173;28;20202;-47
2022/06/06 11:10:06;;;;;;;2.47;2.38;;;25.10;69.50;;;;;;5106821;28;20299;-49
2022/06/06 11:13:00;;;;;;;2.65;2.45;;;25.20;69.30;;;;;;5102979;28;20274;-51
2022/06/06 11:15:37;;;;;;;4.28;2.40;;;25.20;70.30;;;;;;5110291;28;20188;-44
2022/06/06 11:18:37;;;;;;;2.42;2.33;;;25.30;69.70;;;;;;5110246;28;20271;-52
2022/06/06 11:21:36;;;;;;;2.33;2.22;;;25.30;69.70;;;;;;5110262;28;20192;-48
2022/06/06 11:24:15;;;;;;;2.40;2.30;;;25.40;69.90;;;;;;5100599;28;20673;-49
2022/06/06 11:27:11;;;;;;;2.75;2.47;;;25.40;70.00;;;;;;5091475;28;20219;-50
2022/06/06 11:29:56;;;;;;;2.47;2.35;;;25.50;68.90;;;;;;5089164;28;20216;-50
2022/06/06 11:32:47;;;;;;;2.40;2.20;;;25.60;68.70;;;;;;5090044;28;20201;-49
2022/06/06 11:35:27;;;;;;;2.72;2.53;;;25.70;67.70;;;;;;5087203;28;20288;-49
2022/06/06 11:38:26;;;;;;;2.47;2.38;;;25.70;67.70;;;;;;5097060;28;20690;-45
2022/06/06 11:41:31;;;;;;;2.42;2.33;;;25.70;68.40;;;;;;5093467;28;20682;-48
2022/06/06 11:44:13;;;;;;;2.50;2.35;;;25.70;68.60;;;;;;5093326;28;20279;-45
2022/06/06 11:47:22;;;;;;;2.40;2.30;;;25.70;67.80;;;;;;5090179;28;20610;-49
2022/06/06 11:50:26;;;;;;;2.03;1.92;;;25.70;67.40;;;;;;5094578;28;20226;-51
2022/06/06 11:53:35;;;;;;;2.53;2.33;;;25.80;66.60;;;;;;5097017;28;20199;-48
2022/06/06 11:56:15;;;;;;;2.40;2.30;;;25.70;66.10;;;;;;5081847;28;20242;-46
2022/06/06 11:59:10;;;;;;;2.67;2.53;;;25.70;65.90;;;;;;5108318;28;20191;-47
2022/06/06 12:02:23;;;;;;;2.63;2.53;;;25.70;66.00;;;;;;5102867;28;20202;-49
2022/06/06 12:05:34;;;;;;;3.33;2.40;;;25.60;66.40;;;;;;5089262;28;20196;-45
2022/06/06 12:08:29;;;;;;;2.85;2.65;;;25.60;67.20;;;;;;5048205;28;20583;-50
2022/06/06 12:11:29;;;;;;;2.90;2.70;;;25.60;67.60;;;;;;5074548;28;20290;-52
2022/06/06 12:14:30;;;;;;;2.72;2.53;;;25.60;67.50;;;;;;5057873;28;20238;-50
2022/06/06 12:17:09;;;;;;;2.55;2.45;;;25.60;68.60;;;;;;5103659;28;20215;-51
2022/06/06 12:20:14;;;;;;;2.60;2.50;;;25.60;68.00;;;;;;5101410;28;20614;-49
2022/06/06 12:23:00;;;;;;;3.50;2.80;;;25.50;69.10;;;;;;5089279;28;20224;-49
2022/06/06 12:25:57;;;;;;;2.60;2.50;;;25.50;68.40;;;;;;5095769;28;20221;-49
2022/06/06 12:29:05;;;;;;;3.42;2.40;;;25.50;68.50;;;;;;5090786;28;20320;-53
2022/06/06 12:31:47;;;;;;;2.42;2.33;;;25.50;68.30;;;;;;5101891;28;20271;-48
2022/06/06 12:34:18;;;;;;;2.33;2.22;;;25.40;68.20;;;;;;5102024;28;20619;-50
2022/06/06 12:36:52;;;;;;;2.42;2.33;;;25.40;68.30;;;;;;5100116;28;20306;-47
2022/06/06 12:39:42;;;;;;;2.55;2.38;;;25.40;68.60;;;;;;5092005;28;20558;-51
2022/06/06 12:42:15;;;;;;;2.70;2.50;;;25.30;68.70;;;;;;5096091;28;20269;-50
2022/06/06 12:45:09;;;;;;;2.70;2.50;;;25.30;69.00;;;;;;5095229;28;20217;-51
2022/06/06 12:48:14;;;;;;;2.42;2.30;;;25.30;69.00;;;;;;5099000;28;20245;-49
2022/06/06 12:50:51;;;;;;;2.42;2.33;;;25.30;69.00;;;;;;5097263;28;20235;-53
2022/06/06 12:53:46;;;;;;;2.80;2.60;;;25.20;68.70;;;;;;5104006;28;20294;-51
2022/06/06 12:56:25;;;;;;;2.10;2.00;;;25.20;68.60;;;;;;5103512;28;20692;-49
2022/06/06 12:59:07;;;;;;;2.10;2.00;;;25.20;68.60;;;;;;5100432;28;20591;-49
2022/06/06 13:01:45;;;;;;;2.10;2.00;;;25.20;69.10;;;;;;5109379;28;20203;-53
2022/06/06 13:04:35;;;;;;;4.15;2.20;;;25.20;69.00;;;;;;5108987;28;20200;-44
2022/06/06 13:07:16;;;;;;;2.55;2.45;;;25.30;69.30;;;;;;5089266;28;20192;-47
2022/06/06 13:10:07;;;;;;;2.63;2.45;;;25.30;69.20;;;;;;5084880;28;20240;-46
2022/06/06 13:12:53;;;;;;;2.55;2.45;;;25.20;69.10;;;;;;5108591;28;20582;-47
2022/06/06 13:15:31;;;;;;;2.60;2.40;;;25.30;69.10;;;;;;5091859;28;20283;-43
2022/06/06 13:18:10;;;;;;;2.78;2.60;;;25.30;69.20;;;;;;5093263;28;20213;-45
2022/06/06 13:20:43;;;;;;;2.63;2.42;;;25.20;69.20;;;;;;5088269;28;20220;-50
2022/06/06 13:23:24;;;;;;;3.65;2.60;;;25.20;69.20;;;;;;5088071;28;20242;-46
2022/06/06 13:26:33;;;;;;;2.53;2.42;;;25.20;69.50;;;;;;5092550;28;20188;-49
2022/06/06 13:29:00;;;;;;;2.53;2.42;;;25.20;69.70;;;;;;5085439;28;20311;-45
2022/06/06 13:31:44;;;;;;;2.40;2.30;;;25.20;70.00;;;;;;5108797;28;20294;-44
2022/06/06 13:34:31;;;;;;;2.50;2.40;;;25.20;70.00;;;;;;5107727;28;20559;-45
2022/06/06 13:37:14;;;;;;;2.40;2.30;;;25.20;70.30;;;;;;5105856;28;20334;-47
2022/06/06 13:39:54;;;;;;;2.70;2.60;;;25.20;70.30;;;;;;5107407;28;20268;-44
2022/06/06 13:42:40;;;;;;;2.45;2.35;;;25.20;70.30;;;;;;5100814;28;20194;-43
2022/06/06 13:45:18;;;;;;;2.60;2.40;;;25.20;70.30;;;;;;5091226;28;20254;-44
2022/06/06 13:48:38;;;;;;;2.58;2.47;;;25.10;70.40;;;;;;5099618;28;20721;-44
2022/06/06 13:51:20;;;;;;;2.50;2.40;;;25.20;70.40;;;;;;5096405;28;20207;-48
2022/06/06 13:54:01;;;;;;;2.33;2.22;;;25.10;71.00;;;;;;5100765;28;20283;-47
2022/06/06 13:56:52;;;;;;;2.50;2.40;;;25.10;70.40;;;;;;5093485;28;20283;-48
2022/06/06 13:59:41;;;;;;;2.50;2.40;;;25.10;70.50;;;;;;5089248;28;20192;-52
2022/06/06 14:02:26;;;;;;;2.15;2.05;;;25.10;70.50;;;;;;5102567;28;20253;-47
2022/06/06 14:05:08;;;;;;;2.05;1.95;;;25.10;70.70;;;;;;5086566;28;20275;-52
2022/06/06 14:07:46;;;;;;;2.50;2.33;;;25.10;70.60;;;;;;5094924;28;20709;-44
2022/06/06 14:10:18;;;;;;;2.92;2.72;;;25.10;70.50;;;;;;5099840;28;20227;-44
2022/06/06 14:13:07;;;;;;;2.42;2.33;;;25.10;70.30;;;;;;5104801;28;20192;-44
2022/06/06 14:15:42;;;;;;;2.38;2.28;;;25.10;70.00;;;;;;5096295;28;20311;-44
2022/06/06 14:18:13;;;;;;;2.25;2.15;;;25.00;69.70;;;;;;5101109;28;20630;-45
2022/06/06 14:20:45;;;;;;;2.00;1.90;;;25.00;69.80;;;;;;5091551;28;20618;-45
2022/06/06 14:23:23;;;;;;;1.90;1.80;;;25.00;69.90;;;;;;5094121;28;20199;-45